createdAt,value
2022-09-03T00:02:22.397Z,54.46
2022-09-03T00:05:08.004Z,55.18
2022-09-03T00:07:40.862Z,54.22
2022-09-03T00:10:12.485Z,53.76
2022-09-03T00:12:44.628Z,53.66
2022-09-03T00:15:18.861Z,54.56
2022-09-03T00:17:55.389Z,54.73
2022-09-03T00:20:33.225Z,54.61
2022-09-03T00:23:08.692Z,54.26
2022-09-03T00:25:40.713Z,54.35
2022-09-03T00:28:15.693Z,54.46
2022-09-03T00:30:45.343Z,53.22
2022-09-03T00:33:22.437Z,54.83
2022-09-03T00:36:03.863Z,54.89
2022-09-03T00:38:30.857Z,53.44
2022-09-03T00:41:23.496Z,53.63
2022-09-03T00:44:01.094Z,53.60
2022-09-03T00:46:53.013Z,54.88
2022-09-03T00:49:32.704Z,55.06
2022-09-03T00:52:23.454Z,55.25
2022-09-03T00:55:08.903Z,55.21
2022-09-03T00:57:54.006Z,54.86
2022-09-03T01:00:21.463Z,54.11
2022-09-03T01:03:09.277Z,54.76
2022-09-03T01:05:41.642Z,54.68
2022-09-03T01:08:20.901Z,54.89
2022-09-03T01:10:56.487Z,54.78
2022-09-03T01:13:36.884Z,54.84
2022-09-03T01:16:31.368Z,55.40
2022-09-03T01:19:35.628Z,54.96
2022-09-03T01:22:18.741Z,54.70
2022-09-03T01:25:15.708Z,54.77
2022-09-03T01:28:16.365Z,54.57
2022-09-03T01:30:45.877Z,54.54
2022-09-03T01:33:37.161Z,55.56
2022-09-03T01:36:32.623Z,55.57
2022-09-03T01:39:06.228Z,55.39
2022-09-03T01:41:55.425Z,55.29
2022-09-03T01:44:49.910Z,55.52
2022-09-03T01:47:36.987Z,55.52
2022-09-03T01:50:14.924Z,55.59
2022-09-03T01:52:59.338Z,56.33
2022-09-03T01:55:33.561Z,55.48
2022-09-03T01:58:38.127Z,55.53
2022-09-03T02:01:18.261Z,55.09
2022-09-03T02:03:45.793Z,54.79
2022-09-03T02:06:12.599Z,54.75
2022-09-03T02:08:39.174Z,54.81
2022-09-03T02:11:09.801Z,55.96
2022-09-03T02:13:40.892Z,55.77
2022-09-03T02:16:20.448Z,56.58
2022-09-03T02:18:51.385Z,56.00
2022-09-03T02:21:21.165Z,55.58
2022-09-03T02:23:48.484Z,54.99
2022-09-03T02:26:18.402Z,55.24
2022-09-03T02:28:45.505Z,55.04
2022-09-03T02:31:12.315Z,54.95
2022-09-03T02:33:41.328Z,55.12
2022-09-03T02:36:11.533Z,55.60
2022-09-03T02:38:38.175Z,55.21
2022-09-03T02:41:04.890Z,55.13
2022-09-03T02:43:58.855Z,56.50
2022-09-03T02:46:43.461Z,56.78
2022-09-03T02:49:10.025Z,55.40
2022-09-03T02:51:41.993Z,55.52
2022-09-03T02:54:10.453Z,55.27
2022-09-03T02:56:38.189Z,55.35
2022-09-03T02:59:06.682Z,55.37
2022-09-03T03:01:33.692Z,55.31
2022-09-03T03:04:00.367Z,55.35
2022-09-03T03:06:26.996Z,55.35
2022-09-03T03:08:53.521Z,55.16
2022-09-03T03:11:20.165Z,55.23
2022-09-03T03:13:47.057Z,55.19
2022-09-03T03:16:15.518Z,55.17
2022-09-03T03:18:42.235Z,54.91
2022-09-03T03:21:11.524Z,55.20
2022-09-03T03:23:38.762Z,55.25
2022-09-03T03:26:10.560Z,55.56
2022-09-03T03:28:37.549Z,55.55
2022-09-03T03:31:09.311Z,56.86
2022-09-03T03:33:36.148Z,55.70
2022-09-03T03:36:10.994Z,56.74
2022-09-03T03:38:38.554Z,55.91
2022-09-03T03:41:13.770Z,56.92
2022-09-03T03:43:40.428Z,55.98
2022-09-03T03:46:07.274Z,55.85
2022-09-03T03:48:34.320Z,55.75
2022-09-03T03:51:06.729Z,57.02
2022-09-03T03:53:38.051Z,56.90
2022-09-03T03:56:07.619Z,56.30
2022-09-03T03:58:34.512Z,55.74
2022-09-03T04:01:17.736Z,57.10
2022-09-03T04:03:45.093Z,55.82
2022-09-03T04:06:13.861Z,56.01
2022-09-03T04:08:42.822Z,55.93
2022-09-03T04:11:14.023Z,56.41
2022-09-03T04:13:42.369Z,56.11
2022-09-03T04:16:38.586Z,57.23
2022-09-03T04:19:05.259Z,56.16
2022-09-03T04:21:31.843Z,56.17
2022-09-03T04:23:58.885Z,56.28
2022-09-03T04:26:29.137Z,56.84
2022-09-03T04:28:55.684Z,56.19
2022-09-03T04:31:22.368Z,56.25
2022-09-03T04:33:49.505Z,56.28
2022-09-03T04:36:21.623Z,56.55
2022-09-03T04:38:51.767Z,56.97
2022-09-03T04:41:21.178Z,56.80
2022-09-03T04:43:48.612Z,56.78
2022-09-03T04:46:19.365Z,56.88
2022-09-03T04:48:49.377Z,57.87
2022-09-03T04:51:19.296Z,57.69
2022-09-03T04:53:48.248Z,57.34
2022-09-03T04:56:20.659Z,58.38
2022-09-03T04:58:49.205Z,57.49
2022-09-03T05:01:22.449Z,58.27
2022-09-03T05:03:49.555Z,57.46
2022-09-03T05:06:16.114Z,57.56
2022-09-03T05:08:43.592Z,57.43
2022-09-03T05:11:10.280Z,57.49
2022-09-03T05:13:36.979Z,57.45
2022-09-03T05:16:09.979Z,58.13
2022-09-03T05:18:37.094Z,57.48
2022-09-03T05:21:06.708Z,57.62
2022-09-03T05:23:37.835Z,58.01
2022-09-03T05:26:06.953Z,57.56
2022-09-03T05:28:39.731Z,57.62
2022-09-03T05:31:08.732Z,57.51
2022-09-03T05:33:40.669Z,58.20
2022-09-03T05:36:09.974Z,57.77
2022-09-03T05:38:37.131Z,57.43
2022-09-03T05:41:08.831Z,57.41
2022-09-03T05:43:36.226Z,57.53
2022-09-03T05:46:08.746Z,58.48
2022-09-03T05:48:37.100Z,57.80
2022-09-03T05:51:07.879Z,58.24
2022-09-03T05:53:36.555Z,58.03
2022-09-03T05:56:10.500Z,58.37
2022-09-03T05:58:40.066Z,58.11
2022-09-03T06:01:18.384Z,58.33
2022-09-03T06:03:47.510Z,57.64
2022-09-03T06:06:15.247Z,57.81
2022-09-03T06:08:42.705Z,57.91
2022-09-03T06:11:09.292Z,57.67
2022-09-03T06:13:36.836Z,57.50
2022-09-03T06:16:05.741Z,57.55
2022-09-03T06:18:32.755Z,57.58
2022-09-03T06:21:01.686Z,57.21
2022-09-03T06:23:30.401Z,57.33
2022-09-03T06:26:07.991Z,57.41
2022-09-03T06:28:36.283Z,57.18
2022-09-03T06:31:05.023Z,57.21
2022-09-03T06:33:33.651Z,56.89
2022-09-03T06:36:03.787Z,56.79
2022-09-03T06:38:34.468Z,56.79
2022-09-03T06:41:02.600Z,56.56
2022-09-03T06:43:31.056Z,56.29
2022-09-03T06:45:59.890Z,56.27
2022-09-03T06:48:27.895Z,56.01
2022-09-03T06:50:59.857Z,55.68
2022-09-03T06:53:34.496Z,55.17
2022-09-03T06:56:03.396Z,55.36
2022-09-03T06:58:32.221Z,55.61
2022-09-03T07:01:04.470Z,55.56
2022-09-03T07:03:31.045Z,55.65
2022-09-03T07:06:04.233Z,55.69
2022-09-03T07:08:31.918Z,55.97
2022-09-03T07:11:02.787Z,55.98
2022-09-03T07:13:29.553Z,56.03
2022-09-03T07:16:20.672Z,55.54
2022-09-03T07:18:47.792Z,55.72
2022-09-03T07:21:17.011Z,55.64
2022-09-03T07:23:44.430Z,55.82
2022-09-03T07:26:13.835Z,54.96
2022-09-03T07:28:41.985Z,55.06
2022-09-03T07:31:26.817Z,54.07
2022-09-03T07:33:54.877Z,54.57
2022-09-03T07:36:21.916Z,54.35
2022-09-03T07:38:48.662Z,54.40
2022-09-03T07:41:21.796Z,54.00
2022-09-03T07:43:55.300Z,53.61
2022-09-03T07:46:23.918Z,53.40
2022-09-03T07:48:52.046Z,53.40
2022-09-03T07:51:19.915Z,53.77
2022-09-03T07:53:47.565Z,53.64
2022-09-03T07:56:15.055Z,53.41
2022-09-03T07:58:42.361Z,53.47
2022-09-03T08:01:14.172Z,53.52
2022-09-03T08:03:46.663Z,53.48
2022-09-03T08:06:14.553Z,54.04
2022-09-03T08:08:41.614Z,53.82
2022-09-03T08:11:11.252Z,53.38
2022-09-03T08:13:39.637Z,53.03
2022-09-03T08:16:07.667Z,52.67
2022-09-03T08:18:35.038Z,52.72
2022-09-03T08:21:01.551Z,52.85
2022-09-03T08:23:28.056Z,52.67
2022-09-03T08:26:01.167Z,53.00
2022-09-03T08:28:28.349Z,53.30
2022-09-03T08:30:55.011Z,53.39
2022-09-03T08:33:22.319Z,53.70
2022-09-03T08:35:54.500Z,53.36
2022-09-03T08:38:21.119Z,53.50
2022-09-03T08:40:47.782Z,53.16
2022-09-03T08:43:17.272Z,53.33
2022-09-03T08:45:43.915Z,53.41
2022-09-03T08:48:16.218Z,53.22
2022-09-03T08:50:48.483Z,52.97
2022-09-03T08:53:30.030Z,52.27
2022-09-03T08:56:03.366Z,52.57
2022-09-03T08:58:33.301Z,52.48
2022-09-03T09:01:21.548Z,52.65
2022-09-03T09:04:23.008Z,52.61
2022-09-03T09:07:15.024Z,52.37
2022-09-03T09:10:00.915Z,52.23
2022-09-03T09:12:59.912Z,51.93
2022-09-03T09:15:39.990Z,51.44
2022-09-03T09:18:18.727Z,51.61
2022-09-03T09:20:50.962Z,51.51
2022-09-03T09:23:27.152Z,51.79
2022-09-03T09:25:57.271Z,51.97
2022-09-03T09:28:29.159Z,52.19
2022-09-03T09:30:57.267Z,51.80
2022-09-03T09:33:24.517Z,51.63
2022-09-03T09:35:51.050Z,51.23
2022-09-03T09:38:31.552Z,51.89
2022-09-03T09:41:09.148Z,51.46
2022-09-03T09:43:35.857Z,51.70
2022-09-03T09:46:09.822Z,50.41
2022-09-03T09:48:50.520Z,50.71
2022-09-03T09:51:23.602Z,50.08
2022-09-03T09:54:18.169Z,49.84
2022-09-03T09:56:44.924Z,50.28
2022-09-03T09:59:13.572Z,50.29
2022-09-03T10:01:42.411Z,49.95
2022-09-03T10:04:12.875Z,49.95
2022-09-03T10:06:40.447Z,50.04
2022-09-03T10:09:13.500Z,50.00
2022-09-03T10:11:44.543Z,49.47
2022-09-03T10:14:23.026Z,49.53
2022-09-03T10:16:58.449Z,49.00
2022-09-03T10:19:43.775Z,48.93
2022-09-03T10:22:17.154Z,48.48
2022-09-03T10:25:02.572Z,48.02
2022-09-03T10:27:29.223Z,48.80
2022-09-03T10:29:58.727Z,48.33
2022-09-03T10:32:25.215Z,48.35
2022-09-03T10:35:09.431Z,46.80
2022-09-03T10:37:47.477Z,46.26
2022-09-03T10:40:32.037Z,46.52
2022-09-03T10:43:16.824Z,45.78
2022-09-03T10:45:58.733Z,46.05
2022-09-03T10:48:49.725Z,45.32
2022-09-03T10:51:34.580Z,45.38
2022-09-03T10:54:21.798Z,44.50
2022-09-03T10:57:14.362Z,44.44
2022-09-03T10:59:56.765Z,43.03
2022-09-03T11:02:55.329Z,43.39
2022-09-03T11:05:32.933Z,44.15
2022-09-03T11:08:11.898Z,44.11
2022-09-03T11:10:45.969Z,42.92
2022-09-03T11:13:24.811Z,42.80
2022-09-03T11:15:55.782Z,41.22
2022-09-03T11:18:29.229Z,40.78
2022-09-03T11:21:00.372Z,41.45
2022-09-03T11:23:29.772Z,40.57
2022-09-03T11:26:01.542Z,40.96
2022-09-03T11:28:46.880Z,41.49
2022-09-03T11:31:22.518Z,42.02
2022-09-03T11:34:14.001Z,41.19
2022-09-03T11:36:49.753Z,39.76
2022-09-03T11:39:31.712Z,40.25
2022-09-03T11:42:03.883Z,40.63
2022-09-03T11:44:51.060Z,40.97
2022-09-03T11:47:24.368Z,40.50
2022-09-03T11:49:53.549Z,40.20
2022-09-03T11:52:31.367Z,41.49
2022-09-03T11:54:58.230Z,42.29
2022-09-03T11:57:30.414Z,41.17
2022-09-03T12:00:14.714Z,41.12
2022-09-03T12:02:47.684Z,41.05
2022-09-03T12:05:21.980Z,41.28
2022-09-03T12:08:12.679Z,41.05
2022-09-03T12:11:05.908Z,40.68
2022-09-03T12:13:47.987Z,40.93
2022-09-03T12:16:40.184Z,41.86
2022-09-03T12:19:22.219Z,41.32
2022-09-03T12:21:49.624Z,41.52
2022-09-03T12:24:16.822Z,41.41
2022-09-03T12:26:43.937Z,41.08
2022-09-03T12:29:23.801Z,40.44
2022-09-03T12:31:54.735Z,41.32
2022-09-03T12:34:21.313Z,41.14
2022-09-03T12:36:50.859Z,39.95
2022-09-03T12:39:17.576Z,39.84
2022-09-03T12:41:56.390Z,38.45
2022-09-03T12:44:32.546Z,36.57
2022-09-03T12:49:53.243Z,38.45
2022-09-03T12:52:28.297Z,39.26
2022-09-03T12:55:03.242Z,38.33
2022-09-03T12:57:35.602Z,38.74
2022-09-03T13:00:08.266Z,37.12
2022-09-03T13:02:46.313Z,37.12
2022-09-03T13:05:18.782Z,37.00
2022-09-03T13:07:53.210Z,37.46
2022-09-03T13:10:36.339Z,37.76
2022-09-03T13:13:17.737Z,37.10
2022-09-03T13:16:15.847Z,37.01
2022-09-03T13:19:14.754Z,36.98
2022-09-03T13:22:09.415Z,37.13
2022-09-03T13:24:54.785Z,36.95
2022-09-03T13:27:42.009Z,37.93
2022-09-03T13:30:23.106Z,38.02
2022-09-03T13:33:20.464Z,38.31
2022-09-03T13:35:53.306Z,37.50
2022-09-03T13:38:24.064Z,38.24
2022-09-03T13:41:01.125Z,38.78
2022-09-03T13:44:02.767Z,38.59
2022-09-03T13:46:38.951Z,37.63
2022-09-03T13:49:18.028Z,37.37
2022-09-03T13:51:54.484Z,36.67
2022-09-03T13:54:47.563Z,36.13
2022-09-03T13:57:35.567Z,37.36
2022-09-03T14:00:04.276Z,37.19
2022-09-03T14:02:55.772Z,37.12
2022-09-03T14:05:57.610Z,37.41
2022-09-03T14:08:42.373Z,37.93
2022-09-03T14:11:42.825Z,38.17
2022-09-03T14:14:37.472Z,38.70
2022-09-03T14:17:15.097Z,39.03
2022-09-03T14:19:56.173Z,39.27
2022-09-03T14:22:45.874Z,39.68
2022-09-03T14:25:17.171Z,40.05
2022-09-03T14:27:44.061Z,40.38
2022-09-03T14:30:16.831Z,41.15
2022-09-03T14:32:55.668Z,41.31
2022-09-03T14:35:33.094Z,41.61
2022-09-03T14:38:09.619Z,42.30
2022-09-03T14:40:43.752Z,41.97
2022-09-03T14:43:31.975Z,42.39
2022-09-03T14:46:17.071Z,42.52
2022-09-03T14:49:08.583Z,42.56
2022-09-03T14:51:54.067Z,43.41
2022-09-03T14:54:58.356Z,44.51
2022-09-03T14:57:36.836Z,45.36
2022-09-03T15:00:12.134Z,44.91
2022-09-03T15:03:04.917Z,44.40
2022-09-03T15:06:04.473Z,45.00
2022-09-03T15:08:48.255Z,47.92
2022-09-03T15:11:33.200Z,48.82
2022-09-03T15:14:15.646Z,49.36
2022-09-03T15:17:17.407Z,50.75
2022-09-03T15:20:21.223Z,53.06
2022-09-03T15:23:11.378Z,55.25
2022-09-03T15:25:55.899Z,54.52
2022-09-03T15:28:25.308Z,57.36
2022-09-03T15:30:58.972Z,60.12
2022-09-03T15:33:39.487Z,57.93
2022-09-03T15:36:44.143Z,59.59
2022-09-03T15:39:18.345Z,61.93
2022-09-03T15:41:52.669Z,60.49
2022-09-03T15:44:20.058Z,60.80
2022-09-03T15:47:14.127Z,63.48
2022-09-03T15:49:53.063Z,62.42
2022-09-03T15:52:28.547Z,63.69
2022-09-03T15:55:12.877Z,64.16
2022-09-03T15:57:54.752Z,63.67
2022-09-03T16:00:22.512Z,61.63
2022-09-03T16:03:09.342Z,63.28
2022-09-03T16:05:57.963Z,63.00
2022-09-03T16:08:52.495Z,62.06
2022-09-03T16:11:39.141Z,62.47
2022-09-03T16:14:31.494Z,63.46
2022-09-03T16:17:26.202Z,62.72
2022-09-03T16:20:19.400Z,63.42
2022-09-03T16:22:58.136Z,63.57
2022-09-03T16:25:31.591Z,63.93
2022-09-03T16:28:11.471Z,63.62
2022-09-03T16:30:40.967Z,62.93
2022-09-03T16:34:04.831Z,62.55
2022-09-03T16:37:05.820Z,63.81
2022-09-03T16:39:35.369Z,64.58
2022-09-03T16:42:07.473Z,64.88
2022-09-03T16:44:51.182Z,63.58
2022-09-03T16:47:41.477Z,62.89
2022-09-03T16:50:38.955Z,61.85
2022-09-03T16:53:16.355Z,61.76
2022-09-03T16:55:51.831Z,61.42
2022-09-03T16:58:34.480Z,59.62
2022-09-03T17:01:39.059Z,59.31
2022-09-03T17:04:31.682Z,57.86
2022-09-03T17:07:28.703Z,56.60
2022-09-03T17:10:21.153Z,56.51
2022-09-03T17:13:15.335Z,56.08
2022-09-03T17:15:55.048Z,55.45
2022-09-03T17:18:33.622Z,55.51
2022-09-03T17:21:22.929Z,56.09
2022-09-03T17:24:04.451Z,55.56
2022-09-03T17:27:04.316Z,53.81
2022-09-03T17:30:05.229Z,54.33
2022-09-03T17:32:57.196Z,54.10
2022-09-03T17:35:37.784Z,54.28
2022-09-03T17:38:32.294Z,54.86
2022-09-03T17:41:15.845Z,55.19
2022-09-03T17:44:10.366Z,55.34
2022-09-03T17:47:19.305Z,55.88
2022-09-03T17:49:50.572Z,57.01
2022-09-03T17:52:32.289Z,57.41
2022-09-03T17:55:35.070Z,57.54
2022-09-03T17:58:29.397Z,59.22
2022-09-03T18:01:14.712Z,59.32
2022-09-03T18:03:49.868Z,60.36
2022-09-03T18:06:27.948Z,60.47
2022-09-03T18:09:06.473Z,61.00
2022-09-03T18:11:49.692Z,61.42
2022-09-03T18:14:39.504Z,61.19
2022-09-03T18:17:17.356Z,61.80
2022-09-03T18:19:55.549Z,62.04
2022-09-03T18:22:25.507Z,62.18
2022-09-03T18:24:58.499Z,62.42
2022-09-03T18:27:40.791Z,62.81
2022-09-03T18:30:10.190Z,62.24
2022-09-03T18:32:36.860Z,62.07
2022-09-03T18:35:03.634Z,62.24
2022-09-03T18:37:30.227Z,62.68
2022-09-03T18:39:56.813Z,62.33
2022-09-03T18:42:31.378Z,63.44
2022-09-03T18:45:23.328Z,63.30
2022-09-03T18:48:05.956Z,63.27
2022-09-03T18:50:49.144Z,62.56
2022-09-03T18:53:46.365Z,63.60
2022-09-03T18:56:13.011Z,62.78
2022-09-03T18:59:01.036Z,63.73
2022-09-03T19:01:45.890Z,64.87
2022-09-03T19:04:29.630Z,64.15
2022-09-03T19:07:02.243Z,63.18
2022-09-03T19:09:40.997Z,64.15
2022-09-03T19:12:22.395Z,64.06
2022-09-03T19:15:14.992Z,63.65
2022-09-03T19:18:00.056Z,63.32
2022-09-03T19:20:31.463Z,64.13
2022-09-03T19:22:58.082Z,63.53
2022-09-03T19:25:27.417Z,63.62
2022-09-03T19:28:21.903Z,64.07
2022-09-03T19:30:54.491Z,63.50
2022-09-03T19:33:26.686Z,63.52
2022-09-03T19:36:15.117Z,64.67
2022-09-03T19:38:50.271Z,63.80
2022-09-03T19:41:55.214Z,64.64
2022-09-03T19:45:00.602Z,64.57
2022-09-03T19:47:55.203Z,65.02
2022-09-03T19:50:31.018Z,64.28
2022-09-03T19:53:03.610Z,63.81
2022-09-03T19:55:35.515Z,64.63
2022-09-03T19:58:02.131Z,63.93
2022-09-03T20:00:33.063Z,64.07
2022-09-03T20:03:01.592Z,64.05
2022-09-03T20:05:28.175Z,64.28
2022-09-03T20:07:56.442Z,64.15
2022-09-03T20:10:24.940Z,64.52
2022-09-03T20:13:19.202Z,65.30
2022-09-03T20:16:17.170Z,65.03
2022-09-03T20:18:59.854Z,65.27
2022-09-03T20:21:38.571Z,65.09
2022-09-03T20:24:10.829Z,65.03
2022-09-03T20:27:00.430Z,64.35
2022-09-03T20:29:45.393Z,64.99
2022-09-03T20:32:36.531Z,64.98
2022-09-03T20:35:54.312Z,65.06
2022-09-03T20:38:59.682Z,65.00
2022-09-03T20:41:49.506Z,65.05
2022-09-03T20:44:49.243Z,65.40
2022-09-03T20:47:30.721Z,64.58
2022-09-03T20:50:18.916Z,65.60
2022-09-03T20:53:03.951Z,65.09
2022-09-03T20:55:42.584Z,65.44
2022-09-03T20:58:26.779Z,64.80
2022-09-03T21:01:06.990Z,65.51
2022-09-03T21:03:48.957Z,65.45
2022-09-03T21:06:18.363Z,64.82
2022-09-03T21:09:15.210Z,65.58
2022-09-03T21:11:47.734Z,65.38
2022-09-03T21:14:41.251Z,65.17
2022-09-03T21:17:21.238Z,65.58
2022-09-03T21:19:54.256Z,65.77
2022-09-03T21:22:48.170Z,65.99
2022-09-03T21:25:30.027Z,65.36
2022-09-03T21:28:08.438Z,65.66
2022-09-03T21:30:39.192Z,65.45
2022-09-03T21:33:12.927Z,65.79
2022-09-03T21:35:53.588Z,65.98
2022-09-03T21:38:28.147Z,66.06
2022-09-03T21:41:02.750Z,65.96
2022-09-03T21:43:44.153Z,66.32
2022-09-03T21:46:19.075Z,66.07
2022-09-03T21:48:57.745Z,66.44
2022-09-03T21:51:33.371Z,66.04
2022-09-03T21:54:02.930Z,65.40
2022-09-03T21:56:44.595Z,66.37
2022-09-03T22:00:01.477Z,66.22
2022-09-03T22:02:30.260Z,65.96
2022-09-03T22:04:57.463Z,65.73
2022-09-03T22:07:42.994Z,66.56
2022-09-03T22:10:22.572Z,65.58
2022-09-03T22:13:17.053Z,66.25
2022-09-03T22:15:47.020Z,65.73
2022-09-03T22:18:21.579Z,66.24
2022-09-03T22:20:48.289Z,65.79
2022-09-03T22:23:21.702Z,66.31
2022-09-03T22:25:58.997Z,65.99
2022-09-03T22:29:04.153Z,66.66
2022-09-03T22:32:07.920Z,66.62
2022-09-03T22:34:43.872Z,66.38
2022-09-03T22:37:38.426Z,66.43
2022-09-03T22:40:28.665Z,66.34
2022-09-03T22:43:32.874Z,66.49
2022-09-03T22:46:02.207Z,66.00
2022-09-03T22:49:05.865Z,66.06
2022-09-03T22:52:03.171Z,66.30
2022-09-03T22:54:57.939Z,66.48
2022-09-03T22:57:28.315Z,65.78
2022-09-03T23:00:02.440Z,66.34
2022-09-03T23:02:31.511Z,65.82
2022-09-03T23:05:09.528Z,66.44
2022-09-03T23:07:43.005Z,66.46
2022-09-03T23:10:14.755Z,66.07
2022-09-03T23:13:09.502Z,66.25
2022-09-03T23:15:39.516Z,65.90
2022-09-03T23:18:21.059Z,66.68
2022-09-03T23:21:00.736Z,66.29
2022-09-03T23:23:34.877Z,66.25
2022-09-03T23:26:14.015Z,66.22
2022-09-03T23:28:46.201Z,65.85
2022-09-03T23:31:20.780Z,66.08
2022-09-03T23:33:47.987Z,65.69
2022-09-03T23:36:53.103Z,65.89
2022-09-03T23:39:31.778Z,66.32
2022-09-03T23:42:10.172Z,66.36
2022-09-03T23:45:08.558Z,66.07
2022-09-03T23:48:26.575Z,66.59
2022-09-03T23:51:13.978Z,66.26
2022-09-03T23:53:46.281Z,65.90
2022-09-03T23:56:54.163Z,66.31
2022-09-03T23:59:37.823Z,66.48
